Hollow Rock, Tennessee
Current Conditions -  °F | °C
As of 1:15 AM on Sunday 23 Nov 2014 (Local Time) from KPHT Reporting Station
NA  
Wind Chill: 50°   Ceiling: NA
Heat Index: 50°   Visibility: NA
Dew Point: 43°   Wind: 7mph
Humidity: 76%   Direction: 150°SSE
Pressure: 29.95"   Gusts: NA
Location:  36.04°N, 88.27°W
Report Text: KPHT 230715Z AUTO 15006KT 10/06 A2995 RMK
Loading
Personal Weather Stations






























Interactive Weather Map New forecast layout! Learn more

10-Day Weather Forecast

Advertisements
Track Severe Weather on mobile